createdAt,value
2023-01-15T00:00:22.721Z,99783.59
2023-01-15T00:02:25.373Z,99773.50
2023-01-15T00:04:40.798Z,99788.03
2023-01-15T00:06:43.640Z,99786.69
2023-01-15T00:08:49.603Z,99785.88
2023-01-15T00:10:54.898Z,99780.00
2023-01-15T00:13:07.104Z,99771.47
2023-01-15T00:15:18.417Z,99781.56
2023-01-15T00:17:23.395Z,99775.66
2023-01-15T00:19:43.139Z,99769.81
2023-01-15T00:21:51.121Z,99767.09
2023-01-15T00:24:02.757Z,99763.47
2023-01-15T00:26:37.329Z,99763.00
2023-01-15T00:28:39.763Z,99769.91
2023-01-15T00:30:57.686Z,99753.97
2023-01-15T00:33:03.919Z,99766.63
2023-01-15T00:35:10.491Z,99765.06
2023-01-15T00:37:19.622Z,99767.47
2023-01-15T00:39:26.259Z,99758.66
2023-01-15T00:41:28.500Z,99781.91
2023-01-15T00:43:42.780Z,99792.50
2023-01-15T00:45:51.319Z,99779.97
2023-01-15T00:47:53.511Z,99769.03
2023-01-15T00:49:58.613Z,99778.41
2023-01-15T00:52:00.717Z,99799.53
2023-01-15T00:54:10.137Z,99780.91
2023-01-15T00:56:12.438Z,99774.09
2023-01-15T00:58:14.851Z,99774.19
2023-01-15T01:00:17.636Z,99772.44
2023-01-15T01:02:20.041Z,99769.03
2023-01-15T01:04:22.335Z,99762.38
2023-01-15T01:06:24.890Z,99766.25
2023-01-15T01:08:29.858Z,99767.25
2023-01-15T01:10:32.210Z,99772.38
2023-01-15T01:12:44.899Z,99772.72
2023-01-15T01:14:50.119Z,99759.06
2023-01-15T01:17:38.916Z,99759.28
2023-01-15T01:19:41.178Z,99756.13
2023-01-15T01:21:47.243Z,99778.16
2023-01-15T01:23:49.527Z,99766.22
2023-01-15T01:25:52.279Z,99760.50
2023-01-15T01:27:54.519Z,99758.44
2023-01-15T01:29:56.983Z,99756.63
2023-01-15T01:31:59.403Z,99764.31
2023-01-15T01:34:03.874Z,99764.94
2023-01-15T01:36:07.473Z,99777.09
2023-01-15T01:38:09.673Z,99783.19
2023-01-15T01:40:14.797Z,99776.09
2023-01-15T01:42:20.849Z,99789.97
2023-01-15T01:44:37.565Z,99792.53
2023-01-15T01:46:42.797Z,99799.44
2023-01-15T01:48:48.147Z,99801.81
2023-01-15T01:50:54.509Z,99794.88
2023-01-15T01:53:01.203Z,99806.13
2023-01-15T01:55:07.459Z,99793.81
2023-01-15T01:57:13.857Z,99792.31
2023-01-15T01:59:17.931Z,99804.22
2023-01-15T02:01:22.449Z,99798.22
2023-01-15T02:03:35.350Z,99787.84
2023-01-15T02:05:46.468Z,99792.03
2023-01-15T02:07:51.704Z,99813.75
2023-01-15T02:09:56.947Z,99804.59
2023-01-15T02:12:12.212Z,99801.13
2023-01-15T02:14:25.989Z,99794.34
2023-01-15T02:16:37.765Z,99814.69
2023-01-15T02:18:51.881Z,99805.41
2023-01-15T02:21:01.985Z,99817.09
2023-01-15T02:26:00.432Z,99793.53
2023-01-15T02:28:14.228Z,99796.28
2023-01-15T02:33:55.405Z,99797.00
2023-01-15T02:36:01.303Z,99787.28
2023-01-15T02:38:08.449Z,99787.44
2023-01-15T02:40:14.919Z,99781.66
2023-01-15T02:42:20.726Z,99787.56
2023-01-15T02:44:27.317Z,99787.09
2023-01-15T02:46:35.281Z,99783.66
2023-01-15T02:48:39.692Z,99780.44
2023-01-15T02:50:46.134Z,99785.31
2023-01-15T02:52:56.625Z,99772.38
2023-01-15T02:55:06.506Z,99776.75
2023-01-15T02:57:12.656Z,99770.50
2023-01-15T02:59:20.807Z,99770.75
2023-01-15T03:01:30.484Z,99766.75
2023-01-15T03:03:45.405Z,99773.22
2023-01-15T03:06:11.633Z,99780.16
2023-01-15T03:08:13.832Z,99761.34
2023-01-15T03:10:16.913Z,99763.13
2023-01-15T03:13:02.727Z,99738.84
2023-01-15T03:15:26.712Z,99726.47
2023-01-15T03:17:37.798Z,99735.91
2023-01-15T03:19:49.758Z,99736.22
2023-01-15T03:22:06.272Z,99743.91
2023-01-15T03:24:16.000Z,99743.19
2023-01-15T03:26:18.208Z,99749.22
2023-01-15T03:28:26.253Z,99751.81
2023-01-15T03:30:28.395Z,99748.31
2023-01-15T03:32:34.059Z,99742.66
2023-01-15T03:34:48.135Z,99734.94
2023-01-15T03:36:52.422Z,99733.06
2023-01-15T03:38:55.079Z,99747.19
2023-01-15T03:41:09.649Z,99748.13
2023-01-15T03:43:26.148Z,99756.63
2023-01-15T03:45:38.729Z,99755.94
2023-01-15T03:48:00.447Z,99754.16
2023-01-15T03:50:19.459Z,99754.06
2023-01-15T03:52:41.407Z,99750.66
2023-01-15T03:54:53.863Z,99795.72
2023-01-15T03:57:07.441Z,99779.38
2023-01-15T03:59:19.535Z,99772.75
2023-01-15T04:01:32.404Z,99774.81
2023-01-15T04:03:42.299Z,99754.66
2023-01-15T04:05:44.833Z,99750.72
2023-01-15T04:07:48.262Z,99754.34
2023-01-15T04:09:56.373Z,99743.66
2023-01-15T04:12:00.832Z,99746.75
2023-01-15T04:14:02.962Z,99739.41
2023-01-15T04:16:05.433Z,99752.69
2023-01-15T04:18:09.644Z,99739.03
2023-01-15T04:20:12.908Z,99742.72
2023-01-15T04:22:14.979Z,99745.31
2023-01-15T04:24:17.024Z,99743.31
2023-01-15T04:26:19.184Z,99734.97
2023-01-15T04:28:21.455Z,99736.72
2023-01-15T04:30:23.837Z,99756.56
2023-01-15T04:32:26.226Z,99741.06
2023-01-15T04:34:31.451Z,99732.81
2023-01-15T04:36:38.407Z,99722.22
2023-01-15T04:38:40.877Z,99727.16
2023-01-15T04:41:01.303Z,99728.38
2023-01-15T04:43:13.047Z,99725.69
2023-01-15T04:45:15.550Z,99707.25
2023-01-15T04:47:17.453Z,99714.38
2023-01-15T04:49:19.500Z,99705.28
2023-01-15T04:51:21.743Z,99724.00
2023-01-15T04:53:23.987Z,99716.41
2023-01-15T04:55:26.083Z,99719.25
2023-01-15T04:57:29.720Z,99719.34
2023-01-15T04:59:34.707Z,99732.59
2023-01-15T05:01:37.536Z,99751.91
2023-01-15T05:03:40.027Z,99734.00
2023-01-15T05:05:42.001Z,99750.22
2023-01-15T05:07:44.140Z,99722.91
2023-01-15T05:09:47.677Z,99720.69
2023-01-15T05:11:52.082Z,99734.47
2023-01-15T05:13:54.854Z,99732.50
2023-01-15T05:15:56.902Z,99730.56
2023-01-15T05:17:58.912Z,99719.69
2023-01-15T05:20:00.992Z,99718.72
2023-01-15T05:22:02.937Z,99699.72
2023-01-15T05:24:08.859Z,99722.75
2023-01-15T05:26:11.413Z,99706.94
2023-01-15T05:28:13.338Z,99704.44
2023-01-15T05:30:15.629Z,99722.28
2023-01-15T05:32:17.803Z,99719.81
2023-01-15T05:34:20.882Z,99718.97
2023-01-15T05:36:26.575Z,99728.94
2023-01-15T05:38:31.463Z,99710.53
2023-01-15T05:40:33.808Z,99704.75
2023-01-15T05:42:38.401Z,99707.59
2023-01-15T05:44:40.882Z,99716.84
2023-01-15T05:46:45.050Z,99702.66
2023-01-15T05:48:55.496Z,99713.78
2023-01-15T05:51:45.571Z,99719.22
2023-01-15T05:53:47.965Z,99716.88
2023-01-15T05:55:49.989Z,99695.16
2023-01-15T05:58:00.295Z,99717.78
2023-01-15T06:00:06.389Z,99700.84
2023-01-15T06:02:08.509Z,99680.69
2023-01-15T06:04:14.427Z,99672.19
2023-01-15T06:06:18.532Z,99668.09
2023-01-15T06:08:21.578Z,99665.84
2023-01-15T06:10:25.495Z,99664.50
2023-01-15T06:12:27.479Z,99664.53
2023-01-15T06:14:29.659Z,99669.28
2023-01-15T06:16:35.898Z,99695.81
2023-01-15T06:18:39.508Z,99668.41
2023-01-15T06:20:42.850Z,99679.81
2023-01-15T06:22:45.004Z,99664.69
2023-01-15T06:24:50.243Z,99706.56
2023-01-15T06:26:55.839Z,99689.31
2023-01-15T06:28:58.098Z,99683.53
2023-01-15T06:31:02.105Z,99668.56
2023-01-15T06:33:05.845Z,99666.88
2023-01-15T06:35:12.581Z,99667.00
2023-01-15T06:37:17.449Z,99658.44
2023-01-15T06:39:22.689Z,99666.34
2023-01-15T06:41:38.536Z,99664.94
2023-01-15T06:43:50.378Z,99671.56
2023-01-15T06:46:01.688Z,99669.34
2023-01-15T06:48:04.303Z,99681.47
2023-01-15T06:50:09.018Z,99669.41
2023-01-15T06:52:16.048Z,99671.09
2023-01-15T06:54:20.419Z,99671.22
2023-01-15T06:56:24.044Z,99664.94
2023-01-15T06:58:28.779Z,99669.94
2023-01-15T07:01:37.557Z,99663.31
2023-01-15T07:03:39.671Z,99659.91
2023-01-15T07:05:41.951Z,99675.97
2023-01-15T07:07:44.046Z,99672.78
2023-01-15T07:09:46.191Z,99684.63
2023-01-15T07:11:51.230Z,99684.53
2023-01-15T07:14:06.127Z,99688.34
2023-01-15T07:16:27.020Z,99681.16
2023-01-15T07:18:32.230Z,99663.47
2023-01-15T07:20:36.817Z,99673.91
2023-01-15T07:22:38.937Z,99683.91
2023-01-15T07:24:43.513Z,99685.16
2023-01-15T07:26:46.115Z,99689.25
2023-01-15T07:28:48.275Z,99669.94
2023-01-15T07:30:52.940Z,99656.50
2023-01-15T07:32:57.464Z,99653.91
2023-01-15T07:34:59.594Z,99648.00
2023-01-15T07:37:04.391Z,99637.88
2023-01-15T07:39:08.039Z,99630.97
2023-01-15T07:41:23.135Z,99658.19
2023-01-15T07:43:40.614Z,99649.75
2023-01-15T07:46:10.702Z,99659.06
2023-01-15T07:48:26.532Z,99658.38
2023-01-15T07:50:28.701Z,99653.88
2023-01-15T07:52:30.750Z,99651.13
2023-01-15T07:54:52.567Z,99665.13
2023-01-15T07:57:37.564Z,99659.94
2023-01-15T07:59:39.799Z,99648.88
2023-01-15T08:01:44.463Z,99653.25
2023-01-15T08:03:49.408Z,99660.94
2023-01-15T08:05:51.557Z,99657.28
2023-01-15T08:07:53.724Z,99662.72
2023-01-15T08:09:55.737Z,99672.78
2023-01-15T08:12:17.251Z,99679.44
2023-01-15T08:14:33.347Z,99679.72
2023-01-15T08:16:37.419Z,99671.03
2023-01-15T08:18:40.076Z,99679.97
2023-01-15T08:20:47.786Z,99690.22
2023-01-15T08:22:55.975Z,99687.59
2023-01-15T08:25:06.788Z,99685.28
2023-01-15T08:27:26.500Z,99701.50
2023-01-15T08:29:31.968Z,99700.88
2023-01-15T08:31:35.638Z,99690.31
2023-01-15T08:33:42.341Z,99696.25
2023-01-15T08:35:46.768Z,99700.81
2023-01-15T08:37:52.945Z,99693.94
2023-01-15T08:40:03.103Z,99693.84
2023-01-15T08:42:05.141Z,99692.50
2023-01-15T08:44:12.228Z,99707.56
2023-01-15T08:46:17.076Z,99694.88
2023-01-15T08:48:19.488Z,99693.84
2023-01-15T08:50:28.831Z,99693.00
2023-01-15T08:52:30.936Z,99689.00
2023-01-15T08:54:33.043Z,99693.25
2023-01-15T08:56:37.885Z,99680.66
2023-01-15T08:58:40.453Z,99683.22
2023-01-15T09:00:49.464Z,99675.72
2023-01-15T09:02:53.744Z,99672.44
2023-01-15T09:04:58.113Z,99692.19
2023-01-15T09:07:15.213Z,99705.72
2023-01-15T09:09:25.439Z,99695.59
2023-01-15T09:11:35.719Z,99691.31
2023-01-15T09:13:44.257Z,99688.91
2023-01-15T09:16:59.249Z,99698.97
2023-01-15T09:19:48.640Z,99685.56
2023-01-15T09:21:51.051Z,99714.69
2023-01-15T09:23:53.316Z,99714.94
2023-01-15T09:26:00.597Z,99691.69
2023-01-15T09:28:05.245Z,99696.69
2023-01-15T09:30:17.127Z,99696.78
2023-01-15T09:32:20.189Z,99709.41
2023-01-15T09:34:23.473Z,99703.03
2023-01-15T09:36:28.702Z,99697.25
2023-01-15T09:38:35.398Z,99730.34
2023-01-15T09:40:47.765Z,99717.66
2023-01-15T09:43:07.883Z,99708.34
2023-01-15T09:45:44.514Z,99716.28
2023-01-15T09:48:12.768Z,99722.38
2023-01-15T09:50:42.061Z,99715.59
2023-01-15T09:52:52.291Z,99723.59
2023-01-15T09:55:05.819Z,99729.56
2023-01-15T09:57:19.297Z,99739.63
2023-01-15T10:02:33.813Z,99745.97
2023-01-15T10:04:43.358Z,99752.00
2023-01-15T10:07:10.419Z,99756.94
2023-01-15T10:09:27.794Z,99776.06
2023-01-15T10:14:46.944Z,99777.38
2023-01-15T10:17:02.710Z,99803.09
2023-01-15T10:19:08.981Z,99784.56
2023-01-15T10:21:53.997Z,99790.63
2023-01-15T10:24:38.243Z,99780.53
2023-01-15T10:26:54.495Z,99806.94
2023-01-15T10:29:07.109Z,99795.19
2023-01-15T10:31:20.735Z,99805.22
2023-01-15T10:33:25.539Z,99790.09
2023-01-15T10:35:43.581Z,99793.00
2023-01-15T10:38:24.959Z,99812.63
2023-01-15T10:40:38.564Z,99792.38
2023-01-15T10:43:16.668Z,99820.38
2023-01-15T10:45:24.745Z,99808.72
2023-01-15T10:47:37.805Z,99812.25
2023-01-15T10:49:53.572Z,99822.72
2023-01-15T10:52:12.398Z,99811.59
2023-01-15T10:54:33.817Z,99817.44
2023-01-15T10:57:16.200Z,99818.56
2023-01-15T10:59:45.084Z,99826.44
2023-01-15T11:01:56.416Z,99815.22
2023-01-15T11:03:59.855Z,99820.56
2023-01-15T11:09:32.363Z,99824.06
2023-01-15T11:12:08.363Z,99830.91
2023-01-15T11:14:47.693Z,99832.75
2023-01-15T11:17:02.014Z,99830.16
2023-01-15T11:19:15.830Z,99823.22
2023-01-15T11:21:20.418Z,99836.69
2023-01-15T11:23:23.418Z,99832.28
2023-01-15T11:25:28.639Z,99838.97
2023-01-15T11:27:33.475Z,99820.69
2023-01-15T11:29:37.462Z,99814.16
2023-01-15T11:31:41.525Z,99831.06
2023-01-15T11:33:54.788Z,99815.19
2023-01-15T11:35:59.239Z,99826.06
2023-01-15T11:38:15.020Z,99837.94
2023-01-15T11:40:23.783Z,99814.97
2023-01-15T11:42:35.669Z,99799.44
2023-01-15T11:44:48.183Z,99795.22
2023-01-15T11:47:04.784Z,99823.44
2023-01-15T11:49:19.718Z,99801.16
2023-01-15T11:51:21.773Z,99804.59
2023-01-15T11:53:29.555Z,99802.00
2023-01-15T11:55:31.503Z,99795.16
2023-01-15T11:57:37.190Z,99799.50
2023-01-15T11:59:39.260Z,99788.25
2023-01-15T12:01:54.964Z,99784.00
2023-01-15T12:03:59.054Z,99791.97
2023-01-15T12:06:05.718Z,99786.63
2023-01-15T12:08:37.085Z,99778.25
2023-01-15T12:11:06.163Z,99772.88
2023-01-15T12:13:18.870Z,99758.63
2023-01-15T12:15:29.494Z,99767.19
2023-01-15T12:17:51.423Z,99769.19
2023-01-15T12:20:00.701Z,99757.50
2023-01-15T12:22:03.930Z,99754.06
2023-01-15T12:24:22.812Z,99755.81
2023-01-15T12:26:38.752Z,99756.78
2023-01-15T12:28:53.883Z,99759.38
2023-01-15T12:30:59.638Z,99754.31
2023-01-15T12:33:14.422Z,99754.31
2023-01-15T12:35:33.554Z,99751.84
2023-01-15T12:37:45.173Z,99753.72
2023-01-15T12:39:52.539Z,99753.75
2023-01-15T12:42:09.497Z,99747.75
2023-01-15T12:44:20.600Z,99750.06
2023-01-15T12:46:29.387Z,99745.91
2023-01-15T12:48:47.279Z,99736.63
2023-01-15T12:50:51.713Z,99737.53
2023-01-15T12:53:03.562Z,99734.22
2023-01-15T12:55:15.874Z,99729.94
2023-01-15T12:57:31.306Z,99728.19
2023-01-15T12:59:37.455Z,99734.19
2023-01-15T13:01:59.202Z,99734.13
2023-01-15T13:04:23.094Z,99723.97
2023-01-15T13:06:28.805Z,99738.38
2023-01-15T13:08:51.517Z,99731.50
2023-01-15T13:10:53.436Z,99743.38
2023-01-15T13:13:02.412Z,99731.03
2023-01-15T13:15:05.303Z,99721.75
2023-01-15T13:17:23.109Z,99710.53
2023-01-15T13:19:44.914Z,99707.97
2023-01-15T13:21:53.050Z,99714.63
2023-01-15T13:24:13.772Z,99711.34
2023-01-15T13:26:42.151Z,99701.06
2023-01-15T13:29:00.247Z,99706.47
2023-01-15T13:31:20.221Z,99704.88
2023-01-15T13:33:32.443Z,99701.44
2023-01-15T13:35:43.007Z,99694.00
2023-01-15T13:37:49.991Z,99698.19
2023-01-15T13:39:57.927Z,99692.34
2023-01-15T13:42:10.279Z,99698.34
2023-01-15T13:44:23.918Z,99705.22
2023-01-15T13:46:25.883Z,99693.25
2023-01-15T13:48:36.569Z,99694.19
2023-01-15T13:50:43.326Z,99689.97
2023-01-15T13:52:46.268Z,99682.31
2023-01-15T13:54:48.259Z,99673.72
2023-01-15T13:56:50.097Z,99669.34
2023-01-15T13:58:55.166Z,99671.81
2023-01-15T14:01:16.820Z,99657.38
2023-01-15T14:03:30.649Z,99667.72
2023-01-15T14:05:34.985Z,99670.13
2023-01-15T14:07:37.950Z,99673.53
2023-01-15T14:09:39.814Z,99678.56
2023-01-15T14:11:56.725Z,99659.78
2023-01-15T14:14:14.624Z,99652.91
2023-01-15T14:16:29.406Z,99670.66
2023-01-15T14:18:41.048Z,99663.94
2023-01-15T14:20:56.858Z,99659.69
2023-01-15T14:23:12.184Z,99656.97
2023-01-15T14:25:20.521Z,99651.94
2023-01-15T14:27:31.889Z,99652.84
2023-01-15T14:29:43.651Z,99653.47
2023-01-15T14:32:00.077Z,99664.31
2023-01-15T14:34:13.181Z,99655.13
2023-01-15T14:36:24.379Z,99657.72
2023-01-15T14:38:28.462Z,99652.66
2023-01-15T14:40:33.626Z,99655.16
2023-01-15T14:42:50.833Z,99655.13
2023-01-15T14:44:59.032Z,99652.59
2023-01-15T14:47:04.970Z,99658.47
2023-01-15T14:49:28.582Z,99670.97
2023-01-15T14:51:46.064Z,99659.94
2023-01-15T14:53:53.083Z,99665.03
2023-01-15T14:56:07.364Z,99663.97
2023-01-15T14:58:26.076Z,99659.94
2023-01-15T15:00:35.644Z,99668.44
2023-01-15T15:02:42.403Z,99653.13
2023-01-15T15:04:45.822Z,99656.53
2023-01-15T15:06:54.234Z,99653.19
2023-01-15T15:09:02.199Z,99653.13
2023-01-15T15:11:26.362Z,99653.78
2023-01-15T15:13:34.662Z,99638.41
2023-01-15T15:15:48.210Z,99637.69
2023-01-15T15:18:03.711Z,99640.28
2023-01-15T15:20:20.302Z,99635.97
2023-01-15T15:22:26.404Z,99639.41
2023-01-15T15:24:33.233Z,99633.25
2023-01-15T15:26:37.411Z,99638.56
2023-01-15T15:28:39.301Z,99640.19
2023-01-15T15:30:45.000Z,99637.59
2023-01-15T15:32:47.719Z,99629.19
2023-01-15T15:34:53.378Z,99623.22
2023-01-15T15:36:58.526Z,99619.84
2023-01-15T15:39:16.331Z,99625.72
2023-01-15T15:41:38.584Z,99625.78
2023-01-15T15:43:58.791Z,99627.59
2023-01-15T15:46:11.804Z,99612.03
2023-01-15T15:48:29.609Z,99613.78
2023-01-15T15:50:35.117Z,99615.59
2023-01-15T15:52:44.705Z,99625.84
2023-01-15T15:54:57.960Z,99624.16
2023-01-15T15:57:09.368Z,99628.44
2023-01-15T15:59:19.333Z,99632.66
2023-01-15T16:01:21.445Z,99639.47
2023-01-15T16:03:26.079Z,99633.53
2023-01-15T16:05:31.782Z,99635.25
2023-01-15T16:07:34.679Z,99632.72
2023-01-15T16:09:36.965Z,99630.84
2023-01-15T16:11:40.902Z,99637.72
2023-01-15T16:13:46.832Z,99633.47
2023-01-15T16:15:51.000Z,99635.81
2023-01-15T16:17:53.619Z,99629.81
2023-01-15T16:19:57.110Z,99631.47
2023-01-15T16:21:59.391Z,99634.88
2023-01-15T16:24:04.595Z,99638.09
2023-01-15T16:26:20.046Z,99641.47
2023-01-15T16:28:25.951Z,99643.28
2023-01-15T16:30:32.328Z,99642.47
2023-01-15T16:32:37.042Z,99646.72
2023-01-15T16:34:39.980Z,99645.88
2023-01-15T16:36:45.529Z,99651.88
2023-01-15T16:38:50.569Z,99651.03
2023-01-15T16:40:53.531Z,99649.97
2023-01-15T16:43:05.120Z,99654.19
2023-01-15T16:45:26.387Z,99653.44
2023-01-15T16:47:31.953Z,99652.34
2023-01-15T16:49:34.900Z,99656.66
2023-01-15T16:51:42.640Z,99646.22
2023-01-15T16:53:44.539Z,99636.91
2023-01-15T16:55:47.289Z,99637.81
2023-01-15T16:58:08.154Z,99637.69
2023-01-15T17:00:30.989Z,99638.59
2023-01-15T17:02:42.829Z,99633.38
2023-01-15T17:04:46.222Z,99633.28
2023-01-15T17:07:00.418Z,99628.22
2023-01-15T17:09:02.531Z,99635.94
2023-01-15T17:11:06.086Z,99633.22
2023-01-15T17:13:19.161Z,99628.03
2023-01-15T17:15:21.469Z,99631.53
2023-01-15T17:17:24.020Z,99619.69
2023-01-15T17:19:25.964Z,99634.03
2023-01-15T17:21:29.453Z,99626.28
2023-01-15T17:23:35.480Z,99629.06
2023-01-15T17:25:37.859Z,99619.66
2023-01-15T17:27:39.739Z,99616.19
2023-01-15T17:29:41.660Z,99623.63
2023-01-15T17:31:45.892Z,99615.88
2023-01-15T17:33:47.791Z,99618.34
2023-01-15T17:35:49.741Z,99609.88
2023-01-15T17:37:52.015Z,99606.31
2023-01-15T17:39:54.331Z,99610.44
2023-01-15T17:41:56.889Z,99605.50
2023-01-15T17:43:59.238Z,99604.47
2023-01-15T17:46:01.333Z,99601.06
2023-01-15T17:48:04.247Z,99599.25
2023-01-15T17:50:06.804Z,99602.69
2023-01-15T17:52:18.500Z,99591.66
2023-01-15T17:54:40.314Z,99591.47
2023-01-15T17:56:51.845Z,99589.06
2023-01-15T17:59:03.619Z,99600.91
2023-01-15T18:01:24.792Z,99599.00
2023-01-15T18:03:37.344Z,99601.72
2023-01-15T18:05:40.389Z,99607.47
2023-01-15T18:07:43.429Z,99593.97
2023-01-15T18:09:45.562Z,99603.16
2023-01-15T18:11:47.609Z,99601.38
2023-01-15T18:13:49.662Z,99592.75
2023-01-15T18:15:53.785Z,99601.28
2023-01-15T18:17:56.067Z,99590.94
2023-01-15T18:19:57.970Z,99594.44
2023-01-15T18:21:59.860Z,99595.03
2023-01-15T18:24:01.832Z,99592.56
2023-01-15T18:26:05.428Z,99588.31
2023-01-15T18:28:07.299Z,99586.50
2023-01-15T18:30:12.141Z,99587.13
2023-01-15T18:32:14.213Z,99580.50
2023-01-15T18:34:16.204Z,99583.09
2023-01-15T18:36:18.052Z,99589.03
2023-01-15T18:38:19.903Z,99580.34
2023-01-15T18:40:26.860Z,99573.50
2023-01-15T18:42:38.903Z,99573.66
2023-01-15T18:44:50.611Z,99570.41
2023-01-15T18:46:56.743Z,99569.97
2023-01-15T18:48:58.630Z,99574.66
2023-01-15T18:51:09.144Z,99568.34
2023-01-15T18:53:12.846Z,99565.91
2023-01-15T18:55:14.870Z,99554.94
2023-01-15T18:57:16.959Z,99566.13
2023-01-15T18:59:18.869Z,99556.63
2023-01-15T19:01:20.818Z,99555.47
2023-01-15T19:03:22.890Z,99557.00
2023-01-15T19:05:25.202Z,99555.59
2023-01-15T19:07:27.234Z,99553.06
2023-01-15T19:09:29.504Z,99545.41
2023-01-15T19:11:31.853Z,99549.72
2023-01-15T19:13:33.783Z,99540.28
2023-01-15T19:15:45.218Z,99532.56
2023-01-15T19:17:57.293Z,99528.97
2023-01-15T19:19:59.231Z,99532.38
2023-01-15T19:22:10.654Z,99525.59
2023-01-15T19:24:13.078Z,99528.75
2023-01-15T19:26:16.678Z,99529.72
2023-01-15T19:28:20.795Z,99517.81
2023-01-15T19:30:23.498Z,99515.25
2023-01-15T19:32:25.362Z,99516.75
2023-01-15T19:34:34.832Z,99517.63
2023-01-15T19:36:36.872Z,99508.19
2023-01-15T19:38:41.444Z,99501.19
2023-01-15T19:40:43.718Z,99499.66
2023-01-15T19:42:54.680Z,99494.47
2023-01-15T19:45:05.584Z,99495.41
2023-01-15T19:47:22.573Z,99493.47
2023-01-15T19:49:34.567Z,99497.66
2023-01-15T19:51:45.654Z,99487.53
2023-01-15T19:53:47.648Z,99481.59
2023-01-15T19:55:49.683Z,99474.66
2023-01-15T19:58:02.383Z,99472.28
2023-01-15T20:00:06.443Z,99484.91
2023-01-15T20:02:08.296Z,99477.25
2023-01-15T20:04:10.164Z,99473.16
2023-01-15T20:06:12.064Z,99472.47
2023-01-15T20:08:17.003Z,99463.78
2023-01-15T20:10:21.375Z,99461.25
2023-01-15T20:12:32.717Z,99467.31
2023-01-15T20:14:34.615Z,99447.03
2023-01-15T20:16:36.532Z,99451.34
2023-01-15T20:18:38.699Z,99448.97
2023-01-15T20:20:41.176Z,99461.88
2023-01-15T20:22:43.071Z,99462.69
2023-01-15T20:24:44.999Z,99461.94
2023-01-15T20:26:46.934Z,99439.63
2023-01-15T20:28:50.674Z,99437.88
2023-01-15T20:30:55.664Z,99419.94
2023-01-15T20:32:59.443Z,99403.94
2023-01-15T20:35:01.612Z,99405.69
2023-01-15T20:37:03.449Z,99402.28
2023-01-15T20:39:05.671Z,99396.41
2023-01-15T20:41:29.618Z,99389.47
2023-01-15T20:43:42.910Z,99385.31
2023-01-15T20:45:44.903Z,99385.25
2023-01-15T20:47:56.615Z,99374.13
2023-01-15T20:49:58.490Z,99362.19
2023-01-15T20:52:01.495Z,99367.19
2023-01-15T20:54:03.482Z,99358.59
2023-01-15T20:56:13.178Z,99351.63
2023-01-15T20:58:15.698Z,99341.41
2023-01-15T21:00:20.581Z,99339.72
2023-01-15T21:02:22.714Z,99336.31
2023-01-15T21:04:24.601Z,99323.53
2023-01-15T21:06:26.572Z,99325.09
2023-01-15T21:08:29.940Z,99314.97
2023-01-15T21:10:31.797Z,99309.09
2023-01-15T21:12:33.672Z,99303.97
2023-01-15T21:14:35.659Z,99303.97
2023-01-15T21:16:37.671Z,99300.53
2023-01-15T21:18:43.261Z,99295.56
2023-01-15T21:20:45.193Z,99287.09
2023-01-15T21:22:47.648Z,99278.56
2023-01-15T21:24:51.468Z,99283.66
2023-01-15T21:26:53.424Z,99273.47
2023-01-15T21:28:56.129Z,99270.03
2023-01-15T21:30:58.691Z,99254.66
2023-01-15T21:33:00.548Z,99256.38
2023-01-15T21:35:02.395Z,99249.44
2023-01-15T21:37:04.243Z,99250.78
2023-01-15T21:39:06.125Z,99233.00
2023-01-15T21:41:09.252Z,99229.47
2023-01-15T21:43:21.719Z,99223.59
2023-01-15T21:45:23.658Z,99228.66
2023-01-15T21:47:26.689Z,99225.16
2023-01-15T21:49:29.228Z,99217.59
2023-01-15T21:51:31.057Z,99206.44
2023-01-15T21:53:33.396Z,99204.56
2023-01-15T21:55:35.291Z,99196.25
2023-01-15T21:57:38.406Z,99185.19
2023-01-15T21:59:41.239Z,99170.44
2023-01-15T22:01:43.316Z,99162.03
2023-01-15T22:03:46.096Z,99156.81
2023-01-15T22:05:48.179Z,99151.75
2023-01-15T22:07:49.969Z,99147.63
2023-01-15T22:09:51.970Z,99146.78
2023-01-15T22:11:53.869Z,99139.06
2023-01-15T22:13:55.705Z,99134.09
2023-01-15T22:15:57.717Z,99126.56
2023-01-15T22:17:59.679Z,99121.50
2023-01-15T22:20:01.604Z,99111.31
2023-01-15T22:22:08.690Z,99099.31
2023-01-15T22:24:10.614Z,99095.06
2023-01-15T22:26:18.580Z,99085.63
2023-01-15T22:28:21.029Z,99077.13
2023-01-15T22:30:22.816Z,99073.69
2023-01-15T22:32:24.645Z,99066.97
2023-01-15T22:34:28.030Z,99061.06
2023-01-15T22:36:29.830Z,99055.09
2023-01-15T22:38:31.763Z,99048.25
2023-01-15T22:40:33.795Z,99043.16
2023-01-15T22:42:35.565Z,99033.78
2023-01-15T22:44:37.635Z,99027.00
2023-01-15T22:46:39.575Z,99022.75
2023-01-15T22:48:41.361Z,99002.28
2023-01-15T22:50:43.251Z,99004.00
2023-01-15T22:52:45.113Z,98992.00
2023-01-15T22:54:47.479Z,98981.94
2023-01-15T22:56:49.395Z,98973.31
2023-01-15T22:58:55.523Z,98963.16
2023-01-15T23:00:57.605Z,98950.38
2023-01-15T23:03:08.902Z,98944.31
2023-01-15T23:05:11.724Z,98933.41
2023-01-15T23:07:13.518Z,98934.19
2023-01-15T23:09:15.395Z,98921.47
2023-01-15T23:11:17.301Z,98913.84
2023-01-15T23:13:19.226Z,98908.81
2023-01-15T23:15:21.125Z,98900.28
2023-01-15T23:17:22.964Z,98894.34
2023-01-15T23:19:27.709Z,98887.59
2023-01-15T23:21:30.465Z,98874.84
2023-01-15T23:23:32.662Z,98869.69
2023-01-15T23:25:34.482Z,98851.84
2023-01-15T23:27:36.579Z,98856.09
2023-01-15T23:29:38.475Z,98838.25
2023-01-15T23:31:40.496Z,98835.72
2023-01-15T23:33:42.459Z,98829.75
2023-01-15T23:35:46.290Z,98828.09
2023-01-15T23:37:48.199Z,98823.78
2023-01-15T23:39:50.020Z,98818.69
2023-01-15T23:42:01.805Z,98808.50
2023-01-15T23:44:13.872Z,98802.53
2023-01-15T23:46:25.980Z,98793.16
2023-01-15T23:48:27.834Z,98789.81
2023-01-15T23:50:29.798Z,98779.59
2023-01-15T23:52:31.969Z,98771.09
2023-01-15T23:54:33.749Z,98770.25
2023-01-15T23:56:36.781Z,98765.97
2023-01-15T23:58:38.576Z,98764.19
